Time;durP1;ratioP1;P1;durP2;ratioP2;P2;SDS_P1;SDS_P2;PMS_P1;PMS_P2;Temp;Humidity;BMP_temperature;BMP_pressure;BME280_temperature;BME280_humidity;BME280_pressure;Samples;Min_cycle;Max_cycle;Signal;HPM_P1;HPM_P2
2021/05/07 10:34:18;;;;;;;5.40;1.35;;;13.20;74.90;;;;;;6215654;22;853923;-88
2021/05/07 10:36:49;;;;;;;6.30;1.80;;;13.50;73.30;;;;;;6243181;23;20516;-91
2021/05/07 10:39:30;;;;;;;3.30;1.05;;;13.60;71.40;;;;;;6257353;23;20078;-92
2021/05/07 10:41:59;;;;;;;3.67;1.00;;;13.50;70.50;;;;;;6258509;23;19996;-90
2021/05/07 10:44:27;;;;;;;4.75;2.00;;;13.60;71.20;;;;;;6256901;23;20035;-93
2021/05/07 10:47:06;;;;;;;4.55;1.45;;;13.80;69.60;;;;;;6265937;23;20011;-92
2021/05/07 10:49:42;;;;;;;5.03;0.80;;;13.90;67.90;;;;;;6263877;23;19996;-92
2021/05/07 10:52:10;;;;;;;4.10;1.27;;;13.90;67.10;;;;;;6265028;23;20431;-92
2021/05/07 10:54:44;;;;;;;3.15;1.15;;;14.00;66.70;;;;;;6245052;23;20040;-92
2021/05/07 10:57:27;;;;;;;2.72;1.00;;;14.10;65.70;;;;;;6245512;23;20020;-93
2021/05/07 10:59:53;;;;;;;8.60;1.40;;;14.00;64.70;;;;;;6248234;23;20075;-91
2021/05/07 11:02:19;;;;;;;3.88;1.60;;;13.90;64.70;;;;;;6244899;23;20007;-92
2021/05/07 11:04:48;;;;;;;5.93;1.70;;;13.80;65.30;;;;;;6245616;23;20086;-91
2021/05/07 11:07:28;;;;;;;5.68;2.05;;;13.60;66.00;;;;;;6245446;23;20039;-92
2021/05/07 11:10:07;;;;;;;5.55;1.60;;;13.40;65.80;;;;;;6245466;23;20012;-93
2021/05/07 11:12:37;;;;;;;2.95;1.20;;;13.10;66.30;;;;;;6245052;23;20016;-92
2021/05/07 11:15:05;;;;;;;6.70;1.52;;;13.10;67.40;;;;;;6246396;23;20011;-93
2021/05/07 11:17:30;;;;;;;6.15;1.55;;;13.10;67.80;;;;;;6242784;23;20028;-93
2021/05/07 11:19:56;;;;;;;5.88;1.80;;;13.10;68.50;;;;;;6244447;23;20011;-93
2021/05/07 11:22:26;;;;;;;3.63;1.42;;;13.10;69.30;;;;;;6245240;23;20552;-93
2021/05/07 11:24:52;;;;;;;4.40;1.30;;;13.00;69.60;;;;;;6244180;23;20027;-95
2021/05/07 11:27:23;;;;;;;2.85;1.40;;;13.00;68.40;;;;;;6245486;23;20008;-92
2021/05/07 11:30:04;;;;;;;4.38;1.30;;;13.00;69.10;;;;;;6245401;23;20087;-92
2021/05/07 11:32:31;;;;;;;3.83;1.20;;;13.00;69.90;;;;;;6246567;23;20018;-91
2021/05/07 11:35:04;;;;;;;5.78;1.70;;;12.90;70.70;;;;;;6245907;23;20027;-91
2021/05/07 11:37:30;;;;;;;6.00;1.55;;;12.60;71.20;;;;;;6245986;22;20011;-92
2021/05/07 11:39:59;;;;;;;4.50;1.25;;;12.50;72.00;;;;;;6245066;23;20001;-94
2021/05/07 11:42:33;;;;;;;3.13;1.20;;;12.10;72.70;;;;;;6244301;23;20445;-91
2021/05/07 11:45:22;;;;;;;3.38;1.50;;;11.90;73.70;;;;;;6245446;22;20082;-92
2021/05/07 11:47:48;;;;;;;4.03;1.15;;;11.60;74.30;;;;;;6244781;23;20423;-93
2021/05/07 11:50:17;;;;;;;1.88;1.15;;;11.50;74.50;;;;;;6245341;23;20012;-92
2021/05/07 11:52:47;;;;;;;3.30;1.80;;;11.30;74.70;;;;;;6247294;22;20035;-92
2021/05/07 11:55:19;;;;;;;4.93;1.67;;;11.20;75.00;;;;;;6239668;23;20083;-95
2021/05/07 11:58:06;;;;;;;3.95;1.48;;;11.10;75.20;;;;;;6244017;23;20043;-94
2021/05/07 12:00:34;;;;;;;4.38;1.70;;;11.00;75.50;;;;;;6245980;23;20015;-90
2021/05/07 12:03:04;;;;;;;6.05;2.00;;;11.00;75.70;;;;;;6249607;23;20011;-92
2021/05/07 12:05:30;;;;;;;2.15;1.33;;;11.10;76.30;;;;;;6251024;23;20012;-94
2021/05/07 12:07:56;;;;;;;3.08;1.50;;;11.10;76.40;;;;;;6252807;23;20091;-93
2021/05/07 12:10:27;;;;;;;3.95;2.22;;;11.20;76.30;;;;;;6255517;23;20423;-94
2021/05/07 12:12:57;;;;;;;6.00;2.53;;;11.20;75.90;;;;;;6255148;23;20012;-94
2021/05/07 12:15:30;;;;;;;4.47;2.40;;;11.20;75.80;;;;;;6256682;23;20010;-93
2021/05/07 12:17:57;;;;;;;4.20;2.10;;;11.20;75.90;;;;;;6256100;23;20263;-93
2021/05/07 12:20:25;;;;;;;6.50;2.58;;;11.20;75.70;;;;;;6246908;23;20000;-93
2021/05/07 12:22:53;;;;;;;4.35;1.58;;;11.30;75.40;;;;;;6247104;23;20054;-94
2021/05/07 12:25:27;;;;;;;2.95;1.85;;;11.60;75.40;;;;;;6248618;22;20000;-92
2021/05/07 12:27:54;;;;;;;6.32;1.40;;;12.00;74.80;;;;;;6247175;23;20004;-95
2021/05/07 12:30:27;;;;;;;5.47;1.33;;;12.50;73.90;;;;;;6249305;22;20187;-93
2021/05/07 12:33:08;;;;;;;6.43;1.63;;;12.80;72.80;;;;;;6248435;23;20023;-93
2021/05/07 12:35:40;;;;;;;2.53;1.10;;;12.90;70.30;;;;;;6246148;23;20120;-92
2021/05/07 12:38:58;;;;;;;4.43;1.50;;;12.80;70.10;;;;;;6248572;22;20485;-93
2021/05/07 12:41:23;;;;;;;6.38;1.58;;;12.60;70.20;;;;;;6245892;23;20004;-93
2021/05/07 12:43:50;;;;;;;1.55;0.80;;;12.60;70.50;;;;;;6247670;23;20031;-92
2021/05/07 12:46:21;;;;;;;5.53;1.30;;;12.60;70.20;;;;;;6245235;23;20039;-92
2021/05/07 12:48:49;;;;;;;;;;;12.80;69.80;;;;;;6255978;22;20000;-93
2021/05/07 12:51:16;;;;;;;3.33;1.20;;;13.10;69.80;;;;;;6255495;23;19981;-90
2021/05/07 12:53:43;;;;;;;2.10;0.90;;;13.40;68.40;;;;;;6255576;23;20030;-92
2021/05/07 12:56:13;;;;;;;3.10;1.20;;;13.80;67.20;;;;;;6255951;23;20012;-91
2021/05/07 12:58:41;;;;;;;5.68;1.50;;;14.10;66.80;;;;;;6256869;23;20012;-92
2021/05/07 13:01:11;;;;;;;3.75;1.02;;;14.50;66.50;;;;;;6259379;22;20008;-94
2021/05/07 13:03:36;;;;;;;2.58;1.08;;;14.50;65.10;;;;;;6255135;22;20010;-92
2021/05/07 13:06:02;;;;;;;3.92;1.10;;;14.50;64.90;;;;;;6252087;23;20027;-94
2021/05/07 13:08:28;;;;;;;5.38;1.15;;;14.50;65.00;;;;;;6251471;23;20000;-94
2021/05/07 13:10:54;;;;;;;3.65;1.50;;;14.30;64.40;;;;;;6251093;22;20016;-93
2021/05/07 13:13:19;;;;;;;3.03;1.25;;;14.10;65.20;;;;;;6248921;23;20008;-93
2021/05/07 13:15:45;;;;;;;4.90;1.05;;;13.90;65.20;;;;;;6247749;23;20004;-90
2021/05/07 13:18:11;;;;;;;3.30;1.17;;;13.80;64.60;;;;;;6249002;23;20011;-90
2021/05/07 13:20:38;;;;;;;4.90;1.17;;;13.60;65.90;;;;;;6252859;23;20000;-89
2021/05/07 13:23:05;;;;;;;3.70;1.00;;;13.50;67.50;;;;;;6230461;23;20008;-92
2021/05/07 13:25:31;;;;;;;5.80;1.42;;;13.40;68.30;;;;;;6229186;23;20020;-92
2021/05/07 13:27:56;;;;;;;4.35;1.27;;;13.20;68.80;;;;;;6255192;23;20007;-90
2021/05/07 13:30:25;;;;;;;5.82;1.30;;;12.90;70.20;;;;;;6254882;23;20007;-93
2021/05/07 13:32:51;;;;;;;2.60;1.05;;;12.60;71.10;;;;;;6254652;23;20096;-93
2021/05/07 13:35:18;;;;;;;8.90;2.35;;;12.40;72.00;;;;;;6253729;23;20018;-93
2021/05/07 13:37:47;;;;;;;2.30;0.98;;;12.40;72.90;;;;;;6255583;22;20384;-91
2021/05/07 13:40:18;;;;;;;7.43;2.13;;;12.50;73.70;;;;;;6253791;23;20468;-90
2021/05/07 13:42:44;;;;;;;5.50;1.52;;;12.50;73.90;;;;;;6255318;22;20008;-92
2021/05/07 13:45:10;;;;;;;5.35;1.20;;;12.60;73.30;;;;;;6255008;23;20367;-93
2021/05/07 13:47:37;;;;;;;5.75;1.70;;;12.60;72.90;;;;;;6254811;22;20015;-94
2021/05/07 13:50:04;;;;;;;5.10;1.33;;;12.60;72.40;;;;;;6245238;23;20012;-92
2021/05/07 13:52:30;;;;;;;5.47;1.52;;;12.70;72.20;;;;;;6244822;23;20016;-92
2021/05/07 13:54:56;;;;;;;3.67;1.48;;;12.80;72.20;;;;;;6246625;22;20004;-93
2021/05/07 13:57:21;;;;;;;4.25;1.80;;;12.90;71.80;;;;;;6247439;23;20093;-92
2021/05/07 13:59:47;;;;;;;4.50;1.63;;;13.00;71.00;;;;;;6245646;23;20453;-92
2021/05/07 14:02:12;;;;;;;5.57;1.73;;;13.20;70.20;;;;;;6246381;23;20004;-91
2021/05/07 14:04:38;;;;;;;4.22;1.85;;;13.40;69.30;;;;;;6253754;23;20625;-92
2021/05/07 14:07:04;;;;;;;1.13;1.00;;;13.50;68.10;;;;;;6253063;23;20088;-92
2021/05/07 14:09:31;;;;;;;4.07;1.33;;;13.50;67.70;;;;;;6252736;23;20007;-93
2021/05/07 14:11:59;;;;;;;4.07;1.50;;;13.40;66.50;;;;;;6252881;23;20016;-92
2021/05/07 14:14:25;;;;;;;2.17;1.10;;;13.30;66.00;;;;;;6253618;22;20065;-92
2021/05/07 14:16:50;;;;;;;4.85;1.20;;;13.40;66.10;;;;;;6250599;23;20004;-94
2021/05/07 14:19:17;;;;;;;1.67;1.00;;;13.30;65.80;;;;;;6248139;23;20023;-94
2021/05/07 14:21:45;;;;;;;3.33;1.38;;;13.20;66.60;;;;;;6246356;23;20000;-94
2021/05/07 14:24:11;;;;;;;5.43;1.50;;;13.00;67.50;;;;;;6245991;22;20003;-94
2021/05/07 14:26:38;;;;;;;5.45;2.55;;;13.00;68.70;;;;;;6244320;23;20378;-95
2021/05/07 14:29:05;;;;;;;4.75;1.60;;;13.00;69.30;;;;;;6245337;23;20465;-95
2021/05/07 14:31:30;;;;;;;5.05;1.20;;;12.90;69.30;;;;;;6245841;22;20454;-94
2021/05/07 14:33:56;;;;;;;5.05;1.10;;;12.80;69.60;;;;;;6250395;23;20004;-92
2021/05/07 14:36:22;;;;;;;3.20;1.10;;;12.70;69.90;;;;;;6253509;23;20095;-93
2021/05/07 14:38:49;;;;;;;2.65;1.10;;;12.60;70.20;;;;;;6255138;23;20073;-94
2021/05/07 14:41:16;;;;;;;5.35;1.60;;;12.50;70.20;;;;;;6253925;22;20011;-91
2021/05/07 14:43:41;;;;;;;4.78;1.27;;;12.50;70.80;;;;;;6253549;23;20015;-92
2021/05/07 14:46:07;;;;;;;3.13;1.27;;;12.80;71.40;;;;;;6255155;23;20000;-91
2021/05/07 14:48:33;;;;;;;3.25;0.75;;;13.20;70.80;;;;;;6251179;23;20083;-92
2021/05/07 14:50:58;;;;;;;3.90;0.80;;;13.60;70.00;;;;;;6245564;22;20455;-93
2021/05/07 14:53:24;;;;;;;1.88;0.88;;;13.90;66.90;;;;;;6246512;23;20008;-92
2021/05/07 14:55:50;;;;;;;0.93;0.68;;;14.10;65.80;;;;;;6246311;23;20043;-92
2021/05/07 14:58:16;;;;;;;2.58;1.00;;;14.30;64.10;;;;;;6248314;22;20004;-92
2021/05/07 15:00:42;;;;;;;2.58;0.80;;;14.40;63.60;;;;;;6246576;23;20095;-92
2021/05/07 15:03:08;;;;;;;1.83;1.30;;;14.60;63.10;;;;;;6246679;23;20032;-94
2021/05/07 15:05:37;;;;;;;2.95;0.90;;;14.60;62.70;;;;;;6246069;23;20015;-92
2021/05/07 15:08:03;;;;;;;2.80;0.98;;;14.70;62.70;;;;;;6245389;23;20012;-91
2021/05/07 15:10:29;;;;;;;3.58;0.75;;;14.90;62.60;;;;;;6244000;23;20000;-92
2021/05/07 15:12:54;;;;;;;3.17;1.52;;;15.00;62.40;;;;;;6245165;22;20015;-94
2021/05/07 15:15:20;;;;;;;3.35;0.88;;;15.10;61.70;;;;;;6243891;23;20088;-94
2021/05/07 15:17:46;;;;;;;2.58;1.00;;;15.20;61.30;;;;;;6244426;23;20027;-94
2021/05/07 15:20:13;;;;;;;4.10;1.00;;;15.20;61.10;;;;;;6256813;23;20027;-94
2021/05/07 15:22:40;;;;;;;3.83;0.80;;;15.10;60.60;;;;;;6257728;22;20004;-92
2021/05/07 15:25:07;;;;;;;4.53;1.20;;;15.20;60.90;;;;;;6254989;22;20000;-93
2021/05/07 15:27:36;;;;;;;3.35;1.63;;;15.10;60.70;;;;;;6254879;22;20083;-95
2021/05/07 15:30:06;;;;;;;3.42;1.70;;;15.10;61.00;;;;;;6251977;23;20001;-93
2021/05/07 15:32:32;;;;;;;4.33;1.07;;;15.20;61.10;;;;;;6251796;22;20043;-95
2021/05/07 15:34:57;;;;;;;4.70;1.10;;;15.40;61.00;;;;;;6249440;22;20000;-93
2021/05/07 15:37:23;;;;;;;4.53;1.00;;;15.50;60.40;;;;;;6221608;23;20024;-91
2021/05/07 15:39:49;;;;;;;4.13;1.30;;;15.60;60.00;;;;;;6214185;23;20016;-95
2021/05/07 15:42:15;;;;;;;4.47;1.02;;;15.60;60.20;;;;;;6217907;23;20099;-92
2021/05/07 15:44:41;;;;;;;3.42;1.08;;;15.70;60.10;;;;;;6244564;23;20000;-93
2021/05/07 15:47:08;;;;;;;2.03;1.00;;;15.80;60.90;;;;;;6251188;23;20008;-93
2021/05/07 15:49:39;;;;;;;4.15;1.02;;;15.80;60.10;;;;;;6252780;22;20004;-91
2021/05/07 15:52:08;;;;;;;4.30;1.30;;;15.90;59.80;;;;;;6226656;23;20028;-93
2021/05/07 15:54:36;;;;;;;5.90;1.30;;;15.80;59.50;;;;;;6251006;23;20249;-92
2021/05/07 15:57:01;;;;;;;2.38;0.95;;;15.70;59.70;;;;;;6251802;23;20008;-94
2021/05/07 15:59:28;;;;;;;2.45;1.30;;;15.40;59.70;;;;;;6251961;23;20046;-92
2021/05/07 16:01:54;;;;;;;2.83;1.17;;;15.40;60.50;;;;;;6252215;23;20016;-91
2021/05/07 16:04:19;;;;;;;4.85;1.13;;;15.40;59.90;;;;;;6252003;23;20319;-92
2021/05/07 16:06:45;;;;;;;3.03;1.17;;;15.60;60.30;;;;;;6252323;23;20336;-92
2021/05/07 16:09:11;;;;;;;4.30;0.90;;;15.70;60.50;;;;;;6258265;23;20012;-90
2021/05/07 16:11:39;;;;;;;3.13;0.90;;;15.80;60.50;;;;;;6261410;23;20035;-90
2021/05/07 16:14:06;;;;;;;4.55;1.10;;;15.90;60.30;;;;;;6263348;23;20004;-88
2021/05/07 16:16:36;;;;;;;4.20;0.82;;;16.10;60.00;;;;;;6258629;23;20035;-91
2021/05/07 16:19:09;;;;;;;3.47;1.00;;;16.20;58.20;;;;;;6248148;22;20004;-91
2021/05/07 16:21:36;;;;;;;3.60;1.10;;;16.10;57.60;;;;;;6248198;22;20242;-90
2021/05/07 16:24:03;;;;;;;3.40;0.90;;;15.90;56.90;;;;;;6247584;22;20071;-90
2021/05/07 16:26:28;;;;;;;4.55;1.00;;;15.80;56.80;;;;;;6246291;23;20527;-92
2021/05/07 16:28:54;;;;;;;4.30;1.92;;;15.80;57.40;;;;;;6245945;23;20004;-92
2021/05/07 16:31:21;;;;;;;3.25;1.20;;;15.60;57.60;;;;;;6249759;23;20015;-92
2021/05/07 16:33:46;;;;;;;2.22;1.17;;;15.30;57.90;;;;;;6259813;23;20008;-91
2021/05/07 16:36:12;;;;;;;3.53;1.33;;;15.10;58.40;;;;;;6258886;23;20018;-90
2021/05/07 16:41:05;;;;;;;3.63;1.20;;;14.50;59.30;;;;;;6259828;22;20009;-91
2021/05/07 16:43:31;;;;;;;5.63;1.13;;;14.30;59.80;;;;;;6257928;23;20001;-91
2021/05/07 16:45:57;;;;;;;4.18;1.75;;;14.20;60.40;;;;;;6256782;23;20030;-90
2021/05/07 16:48:23;;;;;;;6.40;1.38;;;14.30;60.70;;;;;;6246140;23;20038;-89
2021/05/07 16:50:48;;;;;;;4.88;1.10;;;14.30;60.90;;;;;;6245731;23;20111;-91
2021/05/07 16:53:14;;;;;;;5.47;1.00;;;14.40;60.90;;;;;;6245381;23;20012;-92
2021/05/07 16:55:40;;;;;;;3.03;1.17;;;14.50;60.70;;;;;;6245971;23;20521;-91
2021/05/07 16:58:05;;;;;;;4.80;1.70;;;14.60;60.70;;;;;;6246906;23;20039;-91
2021/05/07 17:00:31;;;;;;;16.38;5.45;;;14.70;60.20;;;;;;6245660;23;20008;-93
2021/05/07 17:02:57;;;;;;;10.98;2.75;;;14.60;60.00;;;;;;6246011;23;20031;-92
2021/05/07 17:05:23;;;;;;;5.63;2.58;;;14.60;59.60;;;;;;6245342;23;20062;-90
2021/05/07 17:07:50;;;;;;;6.50;2.28;;;14.50;59.00;;;;;;6247207;23;20004;-92
2021/05/07 17:10:15;;;;;;;3.40;1.23;;;14.40;59.40;;;;;;6247369;22;20031;-91
2021/05/07 17:12:41;;;;;;;5.15;2.08;;;14.50;59.70;;;;;;6247399;22;20012;-90
2021/05/07 17:15:07;;;;;;;7.10;1.60;;;14.60;59.70;;;;;;6247225;23;20079;-91
2021/05/07 17:17:33;;;;;;;3.45;0.95;;;14.50;59.60;;;;;;6245589;23;20339;-92
2021/05/07 17:19:59;;;;;;;3.28;1.05;;;14.60;59.90;;;;;;6245260;23;20011;-91
2021/05/07 17:22:24;;;;;;;5.78;1.77;;;14.60;60.00;;;;;;6245861;23;20012;-92
2021/05/07 17:24:50;;;;;;;3.60;1.40;;;14.50;59.60;;;;;;6246883;23;20004;-91
2021/05/07 17:27:16;;;;;;;2.60;1.38;;;14.40;60.20;;;;;;6247381;23;20000;-90
2021/05/07 17:29:42;;;;;;;3.17;1.17;;;14.40;60.70;;;;;;6245639;23;20039;-92
2021/05/07 17:32:07;;;;;;;3.60;1.13;;;14.40;60.70;;;;;;6245517;23;20016;-92
2021/05/07 17:34:33;;;;;;;4.10;1.15;;;14.40;61.40;;;;;;6246921;23;20023;-92
2021/05/07 17:36:59;;;;;;;3.80;1.25;;;14.30;60.80;;;;;;6246193;23;20020;-90
2021/05/07 17:39:24;;;;;;;3.03;1.35;;;14.30;60.50;;;;;;6244912;23;20335;-90
2021/05/07 17:41:50;;;;;;;3.10;1.10;;;14.20;59.80;;;;;;6245922;23;20514;-91
2021/05/07 17:44:17;;;;;;;7.80;1.30;;;14.20;59.80;;;;;;6245996;23;20004;-92
2021/05/07 17:46:42;;;;;;;5.80;0.98;;;14.10;59.50;;;;;;6246006;23;20012;-87
2021/05/07 17:49:09;;;;;;;2.42;0.93;;;14.00;59.40;;;;;;6245340;23;20430;-89
2021/05/07 17:51:35;;;;;;;4.45;1.23;;;13.90;59.30;;;;;;6245369;23;20070;-87
2021/05/07 17:54:01;;;;;;;4.15;1.52;;;13.70;59.50;;;;;;6246962;22;20008;-90
2021/05/07 17:56:27;;;;;;;5.70;2.05;;;13.50;59.80;;;;;;6245218;23;20000;-88
2021/05/07 17:58:53;;;;;;;4.25;1.30;;;13.30;60.30;;;;;;6245621;23;20008;-88
2021/05/07 18:01:18;;;;;;;5.28;1.90;;;13.20;61.80;;;;;;6245794;23;20320;-89
2021/05/07 18:03:44;;;;;;;3.88;1.50;;;13.10;61.40;;;;;;6246992;23;20040;-90
2021/05/07 18:06:10;;;;;;;2.63;0.93;;;13.00;62.00;;;;;;6251236;23;20016;-88
2021/05/07 18:08:36;;;;;;;3.42;1.60;;;12.80;62.30;;;;;;6253902;22;20004;-89
2021/05/07 18:11:02;;;;;;;2.53;1.25;;;12.70;62.80;;;;;;6253901;23;20012;-89
2021/05/07 18:13:29;;;;;;;4.70;1.35;;;12.50;63.10;;;;;;6253844;22;20011;-90
2021/05/07 18:15:54;;;;;;;4.93;1.33;;;12.40;63.50;;;;;;6252653;23;20079;-90
2021/05/07 18:18:20;;;;;;;6.38;1.42;;;12.30;63.60;;;;;;6253405;23;20007;-90
2021/05/07 18:20:46;;;;;;;4.03;1.38;;;12.30;63.80;;;;;;6245713;23;20011;-89
2021/05/07 18:23:12;;;;;;;7.05;1.20;;;12.30;64.30;;;;;;6246725;23;20010;-90
2021/05/07 18:25:38;;;;;;;3.03;1.38;;;12.30;64.70;;;;;;6244897;23;20048;-89
2021/05/07 18:28:03;;;;;;;7.20;1.98;;;12.20;65.00;;;;;;6246561;23;20003;-88
2021/05/07 18:30:29;;;;;;;6.53;1.33;;;12.20;65.40;;;;;;6244366;23;20004;-90
2021/05/07 18:32:55;;;;;;;7.78;2.00;;;12.10;65.70;;;;;;6246292;23;20023;-88
2021/05/07 18:35:21;;;;;;;5.47;1.80;;;12.10;66.10;;;;;;6256259;23;20000;-90
2021/05/07 18:37:49;;;;;;;10.63;3.15;;;12.10;66.60;;;;;;6255098;23;20347;-88
2021/05/07 18:40:16;;;;;;;6.28;1.60;;;12.00;66.80;;;;;;6255835;22;20015;-89
2021/05/07 18:42:43;;;;;;;3.63;1.50;;;12.00;67.10;;;;;;6256665;22;20033;-88
2021/05/07 18:45:12;;;;;;;4.95;1.38;;;11.90;67.50;;;;;;6256761;22;20031;-90
2021/05/07 18:47:38;;;;;;;6.53;2.08;;;11.80;67.70;;;;;;6256832;23;20001;-89
2021/05/07 18:50:06;;;;;;;4.38;1.40;;;11.70;68.20;;;;;;6252838;23;20008;-89
2021/05/07 18:52:33;;;;;;;6.00;1.38;;;11.70;68.50;;;;;;6249181;23;20047;-91
2021/05/07 18:55:01;;;;;;;3.38;1.40;;;11.70;68.80;;;;;;6247677;23;20012;-91
2021/05/07 18:57:35;;;;;;;7.38;1.60;;;11.60;68.90;;;;;;6249489;22;20403;-89
2021/05/07 19:00:07;;;;;;;3.13;1.35;;;11.60;69.10;;;;;;6249354;22;20011;-89
2021/05/07 19:02:38;;;;;;;5.63;1.55;;;11.60;69.30;;;;;;6247977;23;20119;-91
2021/05/07 19:05:07;;;;;;;;;;;11.60;69.60;;;;;;6254701;23;20232;-89
2021/05/07 19:07:36;;;;;;;3.95;1.40;;;11.50;70.00;;;;;;6254919;23;19966;-89
2021/05/07 19:10:06;;;;;;;7.20;2.20;;;11.50;70.00;;;;;;6253535;23;20000;-90
2021/05/07 19:12:33;;;;;;;2.37;1.33;;;11.50;70.00;;;;;;6251184;23;20329;-90
2021/05/07 19:14:58;;;;;;;5.65;1.45;;;11.40;70.20;;;;;;6253350;23;20434;-90
2021/05/07 19:17:24;;;;;;;5.03;1.30;;;11.40;70.40;;;;;;6253174;23;20015;-90
2021/05/07 19:19:50;;;;;;;5.15;1.48;;;11.30;70.70;;;;;;6252669;23;20023;-90
2021/05/07 19:22:17;;;;;;;4.82;1.45;;;11.30;71.30;;;;;;6251870;23;20004;-90
2021/05/07 19:24:43;;;;;;;4.32;1.55;;;11.20;71.50;;;;;;6254595;23;20004;-87
2021/05/07 19:27:09;;;;;;;5.25;1.50;;;11.20;72.00;;;;;;6253720;23;20006;-93
2021/05/07 19:29:35;;;;;;;3.72;1.55;;;11.20;72.40;;;;;;6252470;23;20008;-89
2021/05/07 19:32:08;;;;;;;4.25;1.48;;;11.10;72.70;;;;;;6252760;23;20064;-90
2021/05/07 19:34:35;;;;;;;5.03;1.40;;;11.10;73.00;;;;;;6252439;23;20008;-90
2021/05/07 19:37:07;;;;;;;5.57;1.35;;;11.00;73.20;;;;;;6252127;23;20347;-90
2021/05/07 19:39:35;;;;;;;3.47;1.40;;;11.00;73.40;;;;;;6253010;23;20359;-89
2021/05/07 19:42:04;;;;;;;4.45;1.52;;;10.90;73.60;;;;;;6249916;23;20039;-92
2021/05/07 19:44:30;;;;;;;2.70;1.25;;;10.80;73.90;;;;;;6251465;23;20015;-89
2021/05/07 19:46:56;;;;;;;2.70;0.95;;;10.70;74.10;;;;;;6248091;23;20011;-90
2021/05/07 19:49:23;;;;;;;4.93;1.58;;;10.60;74.30;;;;;;6247732;23;20047;-87
2021/05/07 19:52:00;;;;;;;2.70;1.45;;;10.60;74.50;;;;;;6257874;22;20004;-90
2021/05/07 19:54:25;;;;;;;2.60;1.20;;;10.40;74.60;;;;;;6257481;23;20070;-89
2021/05/07 19:56:51;;;;;;;4.57;1.45;;;10.30;74.80;;;;;;6258169;23;20091;-90
2021/05/07 19:59:19;;;;;;;2.80;1.65;;;10.30;75.00;;;;;;6258214;23;20023;-90
2021/05/07 20:01:44;;;;;;;3.15;1.23;;;10.20;75.10;;;;;;6231559;23;20020;-89
2021/05/07 20:04:10;;;;;;;3.70;1.30;;;10.10;75.30;;;;;;6255682;23;20000;-89
2021/05/07 20:06:39;;;;;;;2.40;1.30;;;10.00;75.60;;;;;;6247573;23;20139;-90
2021/05/07 20:09:06;;;;;;;2.92;1.38;;;9.90;75.80;;;;;;6247401;23;20010;-92
2021/05/07 20:11:31;;;;;;;3.13;1.27;;;9.80;76.00;;;;;;6247115;23;20339;-90
2021/05/07 20:13:58;;;;;;;4.57;1.42;;;9.70;76.20;;;;;;6247754;22;20008;-90
2021/05/07 20:16:26;;;;;;;3.72;1.02;;;9.70;76.50;;;;;;6247932;22;20004;-89
2021/05/07 20:18:52;;;;;;;3.05;1.13;;;9.60;76.70;;;;;;6245343;23;20154;-90
2021/05/07 20:21:19;;;;;;;3.45;1.17;;;9.50;76.90;;;;;;6253815;22;20000;-89
2021/05/07 20:23:45;;;;;;;1.92;1.00;;;9.50;77.10;;;;;;6252666;23;20518;-89
2021/05/07 20:26:11;;;;;;;2.47;1.00;;;9.30;77.00;;;;;;6253480;23;20103;-88
2021/05/07 20:28:38;;;;;;;2.80;1.20;;;9.20;77.10;;;;;;6253153;22;20413;-88
2021/05/07 20:31:04;;;;;;;9.77;3.45;;;9.10;77.40;;;;;;6251509;23;20004;-89
2021/05/07 20:33:34;;;;;;;4.00;2.40;;;8.90;77.70;;;;;;6254697;23;20103;-88
2021/05/07 20:36:15;;;;;;;7.18;2.97;;;8.80;78.20;;;;;;6248351;23;20019;-89
2021/05/07 20:38:41;;;;;;;4.18;1.90;;;8.60;78.60;;;;;;6248508;23;20004;-88
2021/05/07 20:41:07;;;;;;;4.15;1.60;;;8.50;79.10;;;;;;6249208;23;20435;-88
2021/05/07 20:43:39;;;;;;;4.40;2.25;;;8.40;79.60;;;;;;6251125;22;20486;-89
2021/05/07 20:46:06;;;;;;;6.78;2.40;;;8.30;79.90;;;;;;6250823;22;20011;-89
2021/05/07 20:48:32;;;;;;;6.25;2.60;;;8.20;80.20;;;;;;6248274;23;20004;-90
2021/05/07 20:51:01;;;;;;;16.70;3.53;;;8.10;80.50;;;;;;6252270;22;20030;-90
2021/05/07 20:53:29;;;;;;;7.38;2.92;;;8.00;80.90;;;;;;6253804;23;20000;-91
2021/05/07 20:55:56;;;;;;;8.27;2.53;;;7.90;81.40;;;;;;6253916;23;20016;-90
2021/05/07 20:58:22;;;;;;;6.80;2.00;;;7.80;81.90;;;;;;6255124;22;20008;-89
2021/05/07 21:00:50;;;;;;;5.72;1.42;;;7.70;82.40;;;;;;6227808;23;20061;-90
2021/05/07 21:03:18;;;;;;;4.35;1.45;;;7.70;82.80;;;;;;6255311;23;20011;-90
2021/05/07 21:05:43;;;;;;;4.85;1.20;;;7.60;83.10;;;;;;6249339;23;20012;-86
2021/05/07 21:08:09;;;;;;;3.38;1.10;;;7.50;83.40;;;;;;6246005;23;20004;-90
2021/05/07 21:10:35;;;;;;;4.85;1.20;;;7.40;84.20;;;;;;6246623;23;20458;-90
2021/05/07 21:13:04;;;;;;;2.58;1.10;;;7.40;83.90;;;;;;6247282;23;20016;-91
2021/05/07 21:15:30;;;;;;;3.75;1.40;;;7.30;84.30;;;;;;6247921;23;20000;-89
2021/05/07 21:17:57;;;;;;;4.05;1.40;;;7.20;84.60;;;;;;6245955;23;20454;-89
2021/05/07 21:20:23;;;;;;;3.33;1.42;;;7.20;85.00;;;;;;6246950;22;20022;-87
2021/05/07 21:22:49;;;;;;;7.55;2.75;;;7.10;85.10;;;;;;6246907;23;20023;-89
2021/05/07 21:25:14;;;;;;;3.38;1.50;;;7.00;85.20;;;;;;6247168;23;20096;-90
2021/05/07 21:27:41;;;;;;;3.85;1.42;;;6.90;85.50;;;;;;6246801;23;20481;-89
2021/05/07 21:30:11;;;;;;;4.25;1.88;;;6.90;86.00;;;;;;6220256;23;20016;-89
2021/05/07 21:32:37;;;;;;;5.65;2.65;;;6.80;86.30;;;;;;6247114;22;20016;-90
2021/05/07 21:35:08;;;;;;;4.07;2.47;;;6.70;86.60;;;;;;6246650;22;20004;-89
2021/05/07 21:37:37;;;;;;;8.60;2.78;;;6.60;87.10;;;;;;6246822;22;20091;-88
2021/05/07 21:40:05;;;;;;;5.68;2.45;;;6.50;87.60;;;;;;6246197;23;20019;-89
2021/05/07 21:42:32;;;;;;;7.13;2.85;;;6.40;88.10;;;;;;6245706;23;20031;-90
2021/05/07 21:45:01;;;;;;;9.30;3.15;;;6.40;88.70;;;;;;6246232;23;20000;-89
2021/05/07 21:47:27;;;;;;;3.70;2.00;;;6.30;88.90;;;;;;6245334;23;19996;-89
2021/05/07 21:49:52;;;;;;;6.07;2.50;;;6.10;89.10;;;;;;6247934;23;20004;-88
2021/05/07 21:52:18;;;;;;;4.20;2.17;;;6.10;89.90;;;;;;6257791;23;20012;-88
2021/05/07 21:54:44;;;;;;;6.63;2.58;;;6.00;90.20;;;;;;6258929;23;20008;-89
2021/05/07 21:57:10;;;;;;;4.18;1.80;;;6.00;90.40;;;;;;6257376;23;20027;-88
2021/05/07 21:59:35;;;;;;;8.23;2.40;;;6.00;90.60;;;;;;6258165;23;20040;-88
2021/05/07 22:02:03;;;;;;;5.43;2.35;;;5.90;90.70;;;;;;6227603;23;20009;-88
2021/05/07 22:04:29;;;;;;;8.02;2.30;;;5.90;90.90;;;;;;6227629;23;20053;-90
2021/05/07 22:06:55;;;;;;;4.30;2.25;;;5.80;91.00;;;;;;6215941;23;20420;-89
2021/05/07 22:09:21;;;;;;;4.70;1.90;;;5.80;91.10;;;;;;6214174;23;20024;-89
2021/05/07 22:11:47;;;;;;;6.35;2.00;;;5.70;91.20;;;;;;6214325;23;20024;-89
2021/05/07 22:14:13;;;;;;;4.45;2.05;;;5.70;91.40;;;;;;6213576;23;20001;-88
2021/05/07 22:16:38;;;;;;;3.65;2.10;;;5.70;91.60;;;;;;6213615;23;20441;-88
2021/05/07 22:19:05;;;;;;;5.45;1.90;;;5.60;91.70;;;;;;6214548;23;20443;-88
2021/05/07 22:21:33;;;;;;;3.05;1.60;;;5.60;91.90;;;;;;6213246;23;20004;-88
2021/05/07 22:24:00;;;;;;;4.93;1.60;;;5.50;91.90;;;;;;6213930;23;20032;-89
2021/05/07 22:26:25;;;;;;;2.88;1.98;;;5.50;92.20;;;;;;6189014;23;20019;-88
2021/05/07 22:28:51;;;;;;;6.55;2.10;;;5.50;92.20;;;;;;6215195;23;20320;-89
2021/05/07 22:31:17;;;;;;;2.90;1.58;;;5.50;92.30;;;;;;6213131;23;20323;-87
2021/05/07 22:33:43;;;;;;;5.55;1.85;;;5.40;92.40;;;;;;6214248;23;20080;-86
2021/05/07 22:36:09;;;;;;;2.45;1.67;;;5.30;92.40;;;;;;6214693;23;20050;-87
2021/05/07 22:38:35;;;;;;;1.90;1.38;;;5.30;92.50;;;;;;6215355;23;20012;-89
2021/05/07 22:41:00;;;;;;;5.05;1.85;;;5.20;92.70;;;;;;6215245;23;19997;-87
2021/05/07 22:43:26;;;;;;;6.20;1.85;;;5.20;92.90;;;;;;6213952;23;20009;-88
2021/05/07 22:45:52;;;;;;;3.72;2.10;;;5.10;92.90;;;;;;6214189;23;20063;-90
2021/05/07 22:48:17;;;;;;;5.68;2.20;;;5.10;93.00;;;;;;6215634;23;20079;-88
2021/05/07 22:50:43;;;;;;;5.30;1.85;;;5.00;93.10;;;;;;6214312;23;20379;-88
2021/05/07 22:53:09;;;;;;;2.80;1.73;;;5.00;93.30;;;;;;6214588;23;20012;-87
2021/05/07 22:55:35;;;;;;;4.05;1.70;;;4.90;93.50;;;;;;6213835;23;20013;-88
2021/05/07 22:58:00;;;;;;;5.20;1.83;;;4.90;93.70;;;;;;6213453;23;20013;-89
2021/05/07 23:00:27;;;;;;;5.03;2.00;;;4.90;93.80;;;;;;6214745;23;20008;-90
2021/05/07 23:02:53;;;;;;;4.22;2.08;;;4.90;93.90;;;;;;6212047;23;20001;-88
2021/05/07 23:05:19;;;;;;;3.90;1.60;;;4.90;94.00;;;;;;6214515;23;20436;-87
2021/05/07 23:07:47;;;;;;;5.00;1.90;;;4.80;94.10;;;;;;6220999;23;20024;-89
2021/05/07 23:10:17;;;;;;;4.90;1.80;;;4.80;94.20;;;;;;6224671;23;20001;-90
2021/05/07 23:12:43;;;;;;;4.47;1.80;;;4.70;94.30;;;;;;6224413;23;20013;-89
2021/05/07 23:15:14;;;;;;;3.40;1.60;;;4.70;94.50;;;;;;6198177;23;20383;-89
2021/05/07 23:17:46;;;;;;;3.58;2.10;;;4.60;94.60;;;;;;6225609;23;20063;-90
2021/05/07 23:20:19;;;;;;;3.42;1.50;;;4.60;94.80;;;;;;6223675;23;20000;-90
2021/05/07 23:22:45;;;;;;;2.67;1.70;;;4.60;95.00;;;;;;6213771;23;20084;-89
2021/05/07 23:25:12;;;;;;;5.22;1.60;;;4.60;95.10;;;;;;6212145;23;20012;-89
2021/05/07 23:27:37;;;;;;;3.30;1.55;;;4.60;95.20;;;;;;6214636;23;20062;-90